This is the latest recevied weather packets stored in our database for station/object N1ICS-1. If no packets are shown the sender has not sent any weather packets the latest 10 day(s).
| Time | Temp. | Humidity | Pressure | Rain* | Wind** | Luminosity | Snow |
|---|---|---|---|---|---|---|---|
| 1777919401 | 24.44° C | 50% | 1005.9 hPa | 0 mm | - | 1033 W/m² | - |
| 1777919102 | 24.44° C | 51% | 1006.1 hPa | 0 mm | - | 1021 W/m² | - |
| 1777918802 | 24.44° C | 51% | 1006.2 hPa | 0 mm | - | 485 W/m² | - |
| 1777918502 | 24.44° C | 51% | 1006.2 hPa | 0 mm | - | 1059 W/m² | - |
| 1777918202 | 23.33° C | 55% | 1006.3 hPa | 0 mm | - | 502 W/m² | - |
| 1777917902 | 23.33° C | 56% | 1006.2 hPa | 0 mm | - | 509 W/m² | - |
| 1777917603 | 23.89° C | 53% | 1006.5 hPa | 0 mm | - | 1011 W/m² | - |
| 1777917302 | 23.33° C | 54% | 1006.5 hPa | 0 mm | - | 985 W/m² | - |
| 1777917002 | 23.33° C | 55% | 1006.4 hPa | 0 mm | - | 964 W/m² | - |
| 1777916702 | 23.33° C | 52% | 1006.5 hPa | 0 mm | - | 954 W/m² | - |
| 1777916402 | 23.33° C | 52% | 1006.5 hPa | 0 mm | - | 974 W/m² | - |
| 1777916101 | 23.89° C | 53% | 1006.5 hPa | 0 mm | - | 972 W/m² | - |
| 1777915801 | 23.33° C | 52% | 1006.5 hPa | 0 mm | - | 970 W/m² | - |
| 1777915502 | 23.33° C | 54% | 1006.6 hPa | 0 mm | - | 970 W/m² | - |
| 1777915201 | 23.33° C | 52% | 1006.7 hPa | 0 mm | - | 968 W/m² | - |
| 1777914902 | 22.22° C | 53% | 1006.6 hPa | 0 mm | - | 979 W/m² | - |
| 1777914602 | 22.22° C | 56% | 1006.8 hPa | 0 mm | - | 976 W/m² | - |
| 1777914302 | 22.22° C | 58% | 1006.7 hPa | 0 mm | - | 369 W/m² | - |
| 1777914002 | 22.22° C | 55% | 1007.1 hPa | 0 mm | - | 977 W/m² | - |
| 1777913702 | 21.67° C | 59% | 1007.2 hPa | 0 mm | - | 973 W/m² | - |
| 1777913402 | 21.67° C | 59% | 1007.1 hPa | 0 mm | - | 968 W/m² | - |
| 1777913102 | 21.67° C | 58% | 1007.4 hPa | 0 mm | - | 965 W/m² | - |
| 1777912802 | 21.11° C | 61% | 1007.4 hPa | 0 mm | - | 959 W/m² | - |
| 1777912501 | 21.11° C | 59% | 1007.6 hPa | 0 mm | - | 959 W/m² | - |
| 1777912202 | 20.56° C | 60% | 1007.6 hPa | 0 mm | - | 958 W/m² | - |
* Rain latest hour (hover to see other rain measurements)
** Current wind speed in m/s (hover to see current wind gust speed)